Terminal Aerodrome Forecast
Issued by NWS

Home | Current Version | Previous Version | Graphics & Text | Print | Product List | Glossary On
Versions: 1 2 3 4 5 6 7 8 9 10 11 12 13 14 15 16 17
000
FTUS43 KUNR 091700
TAFGCC
TAF
KGCC 091730Z 0918/1018 12008KT P6SM FEW080
     FM100400 16012KT P6SM BKN150
     FM101400 34018KT P6SM BKN100=

USA.gov is the U.S. government's official web portal to all federal, state and local government web resources and services.